Time;durP1;ratioP1;P1;durP2;ratioP2;P2;SDS_P1;SDS_P2;PMS_P1;PMS_P2;Temp;Humidity;BMP_temperature;BMP_pressure;BME280_temperature;BME280_humidity;BME280_pressure;Samples;Min_cycle;Max_cycle;Signal;HPM_P1;HPM_P2
2021/08/22 00:00:56;;;;;;;32.75;15.10;;;;;13.30;100266.00;;;;5026589;28;20598;-79
2021/08/22 00:03:23;;;;;;;30.23;14.38;;;;;13.40;100259.00;;;;5026880;28;20021;-81
2021/08/22 00:05:49;;;;;;;25.58;14.05;;;;;13.40;100274.00;;;;5025028;28;20532;-80
2021/08/22 00:08:17;;;;;;;28.83;13.73;;;;;13.40;100280.00;;;;5024279;28;20030;-78
2021/08/22 00:10:43;;;;;;;29.80;14.10;;;;;13.40;100279.00;;;;5026584;28;20033;-78
2021/08/22 00:13:10;;;;;;;27.25;13.80;;;;;13.30;100272.00;;;;5026430;28;20107;-77
2021/08/22 00:15:36;;;;;;;25.77;14.05;;;;;13.30;100274.00;;;;5026411;28;20029;-78
2021/08/22 00:18:03;;;;;;;30.33;14.25;;;;;13.30;100262.00;;;;5026432;28;20033;-77
2021/08/22 00:20:30;;;;;;;23.40;13.55;;;;;13.30;100230.00;;;;5026785;28;20112;-79
2021/08/22 00:22:56;;;;;;;26.25;14.65;;;;;13.30;100273.00;;;;5026134;28;20036;-78
2021/08/22 00:25:23;;;;;;;25.48;13.20;;;;;13.30;100275.00;;;;5026433;28;20048;-77
2021/08/22 00:27:49;;;;;;;26.88;13.95;;;;;13.30;100251.00;;;;5026563;28;20060;-77
2021/08/22 00:30:16;;;;;;;28.55;13.38;;;;;13.30;100274.00;;;;5024729;28;20461;-81
2021/08/22 00:32:42;;;;;;;24.30;13.20;;;;;13.30;100261.00;;;;5026644;28;20061;-78
2021/08/22 00:35:10;;;;;;;22.50;13.60;;;;;13.30;100238.00;;;;5025684;28;20610;-78
2021/08/22 00:37:36;;;;;;;20.48;13.15;;;;;13.30;100260.00;;;;5025250;28;20025;-78
2021/08/22 00:40:03;;;;;;;36.17;14.57;;;;;13.30;100237.00;;;;5026419;28;20052;-79
2021/08/22 00:42:32;;;;;;;32.55;15.63;;;;;13.30;100255.00;;;;5026365;28;20155;-81
2021/08/22 00:45:03;;;;;;;35.25;16.75;;;;;13.30;100258.00;;;;5025627;28;20044;-79
2021/08/22 00:47:30;;;;;;;;;;;;;13.30;100255.00;;;;5023823;28;20026;-79
2021/08/22 00:49:58;;;;;;;32.42;16.35;;;;;13.30;100245.00;;;;5025191;28;19917;-78
2021/08/22 00:52:27;;;;;;;35.28;17.27;;;;;13.30;100266.00;;;;5025904;28;20104;-78
2021/08/22 00:54:53;;;;;;;37.67;17.52;;;;;13.40;100233.00;;;;5025727;28;20021;-80
2021/08/22 00:57:20;;;;;;;51.17;20.02;;;;;13.30;100240.00;;;;5025441;28;20419;-77
2021/08/22 00:59:46;;;;;;;43.50;20.42;;;;;13.30;100216.00;;;;5025994;28;20029;-80
2021/08/22 01:02:30;;;;;;;52.10;24.65;;;;;13.40;100214.00;;;;5025999;28;20052;-78
2021/08/22 01:05:18;;;;;;;48.63;24.98;;;;;13.40;100241.00;;;;5024243;28;20029;-79
2021/08/22 01:08:13;;;;;;;55.63;27.60;;;;;13.40;100244.00;;;;5025031;28;20080;-80
2021/08/22 01:10:42;;;;;;;68.68;35.17;;;;;13.50;100246.00;;;;5021446;28;20045;-78
2021/08/22 01:13:16;;;;;;;73.03;37.65;;;;;13.50;100220.00;;;;5025601;28;20035;-80
2021/08/22 01:15:46;;;;;;;72.35;36.40;;;;;13.60;100251.00;;;;5025634;28;20037;-78
2021/08/22 01:18:18;;;;;;;69.20;34.03;;;;;13.50;100215.00;;;;5023116;28;20025;-79
2021/08/22 01:21:11;;;;;;;60.03;34.17;;;;;13.50;100235.00;;;;5025378;28;20040;-80
2021/08/22 01:24:00;;;;;;;61.80;34.40;;;;;13.50;100220.00;;;;5024975;28;20029;-79
2021/08/22 01:26:35;;;;;;;59.78;33.63;;;;;13.60;100221.00;;;;5025339;28;20017;-78
2021/08/22 01:29:03;;;;;;;75.72;37.30;;;;;13.70;100220.00;;;;5025538;28;20032;-79
2021/08/22 01:31:44;;;;;;;61.80;34.20;;;;;13.70;100224.00;;;;5022933;28;20034;-78
2021/08/22 01:34:12;;;;;;;56.65;34.33;;;;;13.70;100213.00;;;;5023313;28;20078;-78
2021/08/22 01:36:40;;;;;;;60.05;33.90;;;;;13.60;100207.00;;;;5025323;28;20164;-78
2021/08/22 01:39:08;;;;;;;57.85;33.65;;;;;13.60;100183.00;;;;5025301;28;20673;-78
2021/08/22 01:41:36;;;;;;;58.90;30.90;;;;;13.50;100224.00;;;;5025444;28;20033;-78
2021/08/22 01:44:03;;;;;;;63.53;31.90;;;;;13.50;100192.00;;;;5024280;28;20108;-79
2021/08/22 01:46:36;;;;;;;51.58;28.52;;;;;13.40;100223.00;;;;5023660;28;20699;-77
2021/08/22 01:49:07;;;;;;;46.28;26.52;;;;;13.40;100185.00;;;;5025978;28;20028;-77
2021/08/22 01:51:34;;;;;;;56.42;29.75;;;;;13.30;100213.00;;;;5023059;28;20041;-79
2021/08/22 01:54:04;;;;;;;52.08;27.67;;;;;13.30;100206.00;;;;5024162;28;20040;-76
2021/08/22 01:56:34;;;;;;;51.97;28.05;;;;;13.30;100183.00;;;;5025578;28;20493;-80
2021/08/22 01:59:03;;;;;;;39.75;24.95;;;;;13.30;100191.00;;;;5026138;28;20481;-80
2021/08/22 02:01:30;;;;;;;49.60;27.40;;;;;13.30;100169.00;;;;5025950;28;20038;-79
2021/08/22 02:04:06;;;;;;;49.45;27.13;;;;;13.30;100213.00;;;;5025995;28;20030;-78
2021/08/22 02:06:48;;;;;;;52.97;29.20;;;;;13.30;100188.00;;;;5025160;28;20036;-78
2021/08/22 02:09:20;;;;;;;51.28;26.63;;;;;13.30;100200.00;;;;5026796;28;20045;-77
2021/08/22 02:11:56;;;;;;;50.72;29.48;;;;;13.30;100193.00;;;;5029586;28;20750;-78
2021/08/22 02:14:24;;;;;;;51.72;29.13;;;;;13.40;100145.00;;;;5029771;28;20083;-78
2021/08/22 02:16:55;;;;;;;57.70;31.42;;;;;13.40;100203.00;;;;5030123;28;20473;-79
2021/08/22 02:19:24;;;;;;;59.28;28.85;;;;;13.30;100163.00;;;;5029810;28;20028;-80
2021/08/22 02:21:52;;;;;;;48.38;28.25;;;;;13.30;100159.00;;;;5029215;28;20037;-80
2021/08/22 02:24:19;;;;;;;54.22;28.88;;;;;13.20;100165.00;;;;5029444;28;20511;-77
2021/08/22 02:26:45;;;;;;;54.65;28.15;;;;;13.10;100162.00;;;;5029083;28;20789;-78
2021/08/22 02:29:12;;;;;;;49.70;28.73;;;;;13.10;100135.00;;;;5029216;28;20044;-78
2021/08/22 02:31:38;;;;;;;46.30;27.25;;;;;13.10;100147.00;;;;5028858;28;20024;-77
2021/08/22 02:34:05;;;;;;;44.72;27.80;;;;;13.10;100145.00;;;;5029179;28;20025;-79
2021/08/22 02:36:32;;;;;;;48.28;26.40;;;;;13.00;100130.00;;;;5029291;28;20033;-77
2021/08/22 02:38:58;;;;;;;54.05;28.13;;;;;13.00;100118.00;;;;5029322;28;20107;-77
2021/08/22 02:41:25;;;;;;;48.38;25.27;;;;;13.10;100139.00;;;;5029274;28;20112;-77
2021/08/22 02:43:53;;;;;;;47.58;24.63;;;;;13.00;100140.00;;;;5029381;28;20017;-78
2021/08/22 02:46:20;;;;;;;51.22;25.33;;;;;13.00;100063.00;;;;5029075;28;20748;-76
2021/08/22 02:48:46;;;;;;;38.42;23.00;;;;;13.00;100126.00;;;;5028319;28;20080;-77
2021/08/22 02:51:13;;;;;;;42.17;22.95;;;;;12.90;100113.00;;;;5028818;28;20036;-78
2021/08/22 02:53:40;;;;;;;51.22;25.00;;;;;12.80;100118.00;;;;5029050;28;20052;-78
2021/08/22 02:56:06;;;;;;;42.50;23.55;;;;;12.80;100096.00;;;;5028931;28;20033;-76
2021/08/22 02:58:33;;;;;;;63.28;27.17;;;;;13.00;100116.00;;;;5028653;28;20033;-76
2021/08/22 03:00:59;;;;;;;56.30;24.60;;;;;13.00;100121.00;;;;5028853;28;20041;-79
2021/08/22 03:03:26;;;;;;;47.38;25.02;;;;;12.90;100098.00;;;;5028396;28;20480;-79
2021/08/22 03:05:53;;;;;;;42.15;23.08;;;;;12.90;100108.00;;;;5028433;28;20113;-77
2021/08/22 03:08:19;;;;;;;44.88;22.33;;;;;12.80;100080.00;;;;5028972;28;21160;-80
2021/08/22 03:10:46;;;;;;;54.28;23.10;;;;;12.70;100100.00;;;;5028499;28;20034;-78
2021/08/22 03:13:13;;;;;;;39.55;21.50;;;;;12.60;100104.00;;;;5028310;28;20052;-80
2021/08/22 03:15:40;;;;;;;46.50;23.20;;;;;12.60;100094.00;;;;5028333;28;20030;-77
2021/08/22 03:18:07;;;;;;;45.95;23.60;;;;;12.60;100096.00;;;;5028354;28;20026;-78
2021/08/22 03:20:33;;;;;;;41.85;22.83;;;;;12.60;100062.00;;;;5027492;28;20412;-77
2021/08/22 03:23:00;;;;;;;40.83;22.85;;;;;12.60;100077.00;;;;5028332;28;20032;-79
2021/08/22 03:25:26;;;;;;;39.72;22.33;;;;;12.60;100089.00;;;;5028338;28;20030;-79
2021/08/22 03:27:53;;;;;;;48.13;23.10;;;;;12.60;100060.00;;;;5027990;28;20033;-79
2021/08/22 03:30:20;;;;;;;43.13;21.38;;;;;12.60;100096.00;;;;5027735;28;20396;-78
2021/08/22 03:32:46;;;;;;;42.70;23.10;;;;;12.50;100079.00;;;;5027877;28;20025;-76
2021/08/22 03:35:13;;;;;;;41.97;22.80;;;;;12.50;100056.00;;;;5027794;28;20403;-79
2021/08/22 03:37:39;;;;;;;40.75;20.52;;;;;12.50;100076.00;;;;5028184;28;20843;-80
2021/08/22 03:40:07;;;;;;;41.60;21.95;;;;;12.50;100078.00;;;;5027829;28;20053;-80
2021/08/22 03:42:33;;;;;;;39.22;19.27;;;;;12.40;100052.00;;;;5026565;28;20505;-76
2021/08/22 03:45:00;;;;;;;36.70;20.33;;;;;12.40;100048.00;;;;5027894;28;20640;-75
2021/08/22 03:47:26;;;;;;;30.00;19.23;;;;;12.40;100029.00;;;;5027857;28;20030;-78
2021/08/22 03:49:53;;;;;;;36.15;19.55;;;;;12.40;100033.00;;;;5027739;28;20029;-78
2021/08/22 03:52:19;;;;;;;37.75;19.50;;;;;12.40;100028.00;;;;5027127;28;20037;-80
2021/08/22 03:54:46;;;;;;;42.00;20.00;;;;;12.50;100050.00;;;;5027431;28;20383;-77
2021/08/22 03:57:13;;;;;;;35.63;18.50;;;;;12.50;100028.00;;;;5027877;28;20038;-79
2021/08/22 03:59:39;;;;;;;36.67;19.33;;;;;12.40;100043.00;;;;5027485;28;20033;-77
2021/08/22 04:02:06;;;;;;;32.85;19.00;;;;;12.30;100024.00;;;;5028357;28;20026;-79
2021/08/22 04:04:33;;;;;;;35.97;18.27;;;;;12.40;100027.00;;;;5027759;28;20523;-79
2021/08/22 04:07:00;;;;;;;37.70;18.25;;;;;12.30;100027.00;;;;5027550;28;20091;-77
2021/08/22 04:09:30;;;;;;;41.53;18.75;;;;;12.30;100041.00;;;;5026820;28;20037;-81
2021/08/22 04:11:58;;;;;;;37.92;18.83;;;;;12.30;100040.00;;;;5025914;28;20061;-75
2021/08/22 04:14:25;;;;;;;30.17;17.33;;;;;12.30;100041.00;;;;5027589;28;20025;-79
2021/08/22 04:16:51;;;;;;;32.58;17.92;;;;;12.30;100014.00;;;;5027443;28;20029;-80
2021/08/22 04:19:18;;;;;;;28.77;16.77;;;;;12.20;100019.00;;;;5027273;28;20029;-78
2021/08/22 04:21:44;;;;;;;41.42;17.15;;;;;12.20;100053.00;;;;5027451;28;20041;-77
2021/08/22 04:24:11;;;;;;;30.88;16.95;;;;;12.20;100015.00;;;;5027607;28;20029;-78
2021/08/22 04:26:39;;;;;;;29.38;15.57;;;;;12.20;100028.00;;;;5025498;28;20409;-76
2021/08/22 04:29:06;;;;;;;27.27;16.40;;;;;12.20;100024.00;;;;5027680;28;20057;-81
2021/08/22 04:31:33;;;;;;;29.33;15.82;;;;;12.20;100001.00;;;;5027206;28;20033;-78
2021/08/22 04:33:59;;;;;;;38.75;18.10;;;;;12.20;100005.00;;;;5026122;28;20079;-76
2021/08/22 04:36:26;;;;;;;28.90;16.40;;;;;12.10;99994.00;;;;5026696;28;20033;-79
2021/08/22 04:38:52;;;;;;;37.05;18.50;;;;;12.10;100017.00;;;;5026782;28;20033;-79
2021/08/22 04:41:20;;;;;;;41.58;19.73;;;;;12.20;100001.00;;;;5026553;28;20036;-78
2021/08/22 04:43:47;;;;;;;40.70;17.45;;;;;12.20;99981.00;;;;5027410;28;20057;-79
2021/08/22 04:46:14;;;;;;;29.67;17.52;;;;;12.10;99995.00;;;;5025511;28;20515;-81
2021/08/22 04:48:41;;;;;;;31.92;17.42;;;;;12.10;99996.00;;;;5027093;28;20033;-78
2021/08/22 04:51:07;;;;;;;31.65;17.40;;;;;12.20;99989.00;;;;5026972;28;20086;-80
2021/08/22 04:53:34;;;;;;;34.60;16.60;;;;;12.20;99978.00;;;;5027776;28;20032;-80
2021/08/22 04:56:02;;;;;;;37.08;16.77;;;;;12.20;99976.00;;;;5026863;28;20030;-77
2021/08/22 04:58:28;;;;;;;38.17;19.30;;;;;12.20;99975.00;;;;5027005;28;20112;-78
2021/08/22 05:00:55;;;;;;;27.83;16.92;;;;;12.30;99978.00;;;;5026530;28;20033;-80
2021/08/22 05:03:22;;;;;;;48.05;18.88;;;;;12.30;99982.00;;;;5026699;28;20060;-77
2021/08/22 05:05:48;;;;;;;44.80;19.27;;;;;12.20;99966.00;;;;5026825;28;20678;-78
2021/08/22 05:08:17;;;;;;;35.05;17.55;;;;;12.10;99999.00;;;;5026453;28;20041;-78
2021/08/22 05:10:45;;;;;;;28.00;16.23;;;;;12.10;99973.00;;;;5026065;28;20041;-80
2021/08/22 05:13:12;;;;;;;33.65;17.42;;;;;12.20;99976.00;;;;5026696;28;20031;-78
2021/08/22 05:15:41;;;;;;;40.72;18.80;;;;;12.20;99995.00;;;;5026862;28;20060;-79
2021/08/22 05:18:08;;;;;;;50.78;19.55;;;;;12.20;99958.00;;;;5026555;28;20025;-78
2021/08/22 05:20:34;;;;;;;33.53;17.23;;;;;12.20;99988.00;;;;5027265;28;20037;-79
2021/08/22 05:23:01;;;;;;;41.13;17.75;;;;;12.10;99980.00;;;;5026127;28;20025;-77
2021/08/22 05:25:28;;;;;;;31.92;16.50;;;;;12.10;99981.00;;;;5026107;28;20025;-79
2021/08/22 05:27:54;;;;;;;38.63;18.42;;;;;12.10;99988.00;;;;5026578;28;20035;-79
2021/08/22 05:30:21;;;;;;;24.40;16.30;;;;;12.00;99971.00;;;;5026651;28;20034;-80
2021/08/22 05:32:47;;;;;;;44.65;18.90;;;;;12.10;99959.00;;;;5026258;28;20036;-77
2021/08/22 05:35:14;;;;;;;37.78;17.25;;;;;12.10;99948.00;;;;5025769;28;20469;-76
2021/08/22 05:37:40;;;;;;;29.77;16.27;;;;;12.10;99971.00;;;;5026022;28;20112;-76
2021/08/22 05:40:07;;;;;;;29.35;17.30;;;;;12.10;99969.00;;;;5027774;28;20097;-78
2021/08/22 05:42:34;;;;;;;23.17;11.27;;;;;11.90;99948.00;;;;5026616;28;20038;-75
2021/08/22 05:45:00;;;;;;;22.63;12.38;;;;;11.90;99937.00;;;;5029534;28;20493;-77
2021/08/22 05:47:27;;;;;;;22.08;15.00;;;;;12.00;99961.00;;;;5030564;28;20515;-77
2021/08/22 05:49:53;;;;;;;30.17;17.10;;;;;12.10;99932.00;;;;5030041;28;20385;-78
2021/08/22 05:52:20;;;;;;;37.35;19.55;;;;;12.20;99965.00;;;;5030427;28;20096;-79
2021/08/22 05:54:47;;;;;;;32.22;18.90;;;;;12.20;99938.00;;;;5029809;28;20039;-78
2021/08/22 05:57:13;;;;;;;43.38;20.88;;;;;12.30;99946.00;;;;5029781;28;20037;-75
2021/08/22 05:59:40;;;;;;;45.80;20.83;;;;;12.40;99946.00;;;;5030028;28;20041;-76
2021/08/22 06:02:06;;;;;;;45.22;21.42;;;;;12.40;99929.00;;;;5029943;28;20029;-76
2021/08/22 06:04:33;;;;;;;41.28;21.52;;;;;12.50;99945.00;;;;5029547;28;20573;-78
2021/08/22 06:07:00;;;;;;;43.03;21.00;;;;;12.50;99907.00;;;;5029920;28;20061;-78
2021/08/22 06:09:30;;;;;;;32.00;19.83;;;;;12.60;99903.00;;;;5029533;28;20047;-77
2021/08/22 06:11:57;;;;;;;39.30;21.48;;;;;12.70;99910.00;;;;5029720;28;20021;-77
2021/08/22 06:14:23;;;;;;;42.22;21.50;;;;;12.70;99927.00;;;;5029670;28;20029;-79
2021/08/22 06:16:50;;;;;;;40.95;21.60;;;;;12.80;99908.00;;;;5029279;28;20036;-78
2021/08/22 06:19:16;;;;;;;36.85;20.50;;;;;12.80;99903.00;;;;5029774;28;20033;-78
2021/08/22 06:21:43;;;;;;;29.27;18.33;;;;;12.80;99914.00;;;;5029616;28;20025;-80
2021/08/22 06:24:09;;;;;;;38.25;19.50;;;;;12.70;99922.00;;;;5029655;28;20083;-79
2021/08/22 06:26:36;;;;;;;28.38;17.98;;;;;12.60;99922.00;;;;5029957;28;20033;-77
2021/08/22 06:29:02;;;;;;;30.52;18.13;;;;;12.60;99902.00;;;;5027700;28;20127;-77
2021/08/22 06:31:29;;;;;;;34.42;18.45;;;;;12.70;99920.00;;;;5029294;28;20033;-78
2021/08/22 06:33:56;;;;;;;36.33;19.33;;;;;12.80;99932.00;;;;5028868;28;20044;-79
2021/08/22 06:36:22;;;;;;;28.17;18.50;;;;;12.90;99920.00;;;;5029204;28;20038;-79
2021/08/22 06:38:49;;;;;;;33.22;17.63;;;;;12.90;99927.00;;;;5028897;28;20025;-77
2021/08/22 06:41:15;;;;;;;29.98;19.65;;;;;12.90;99915.00;;;;5029424;28;20052;-79
2021/08/22 06:43:42;;;;;;;40.58;22.35;;;;;13.00;99899.00;;;;5029140;28;20052;-77
2021/08/22 06:46:08;;;;;;;32.75;19.13;;;;;13.10;99900.00;;;;5028716;28;20508;-77
2021/08/22 06:48:35;;;;;;;27.33;17.88;;;;;13.10;99904.00;;;;5028752;28;20484;-77
2021/08/22 06:51:02;;;;;;;31.77;17.90;;;;;13.20;99916.00;;;;5029303;28;20048;-79
2021/08/22 06:53:29;;;;;;;32.95;18.92;;;;;13.40;99925.00;;;;5029053;28;20251;-77
2021/08/22 06:55:56;;;;;;;23.48;17.00;;;;;13.30;99910.00;;;;5028366;28;20032;-76
2021/08/22 06:58:23;;;;;;;27.13;15.93;;;;;13.30;99903.00;;;;5027157;28;20033;-77
2021/08/22 07:00:49;;;;;;;27.05;17.17;;;;;13.30;99930.00;;;;5028302;28;20528;-77
2021/08/22 07:03:16;;;;;;;26.48;16.35;;;;;13.40;99890.00;;;;5028727;28;20036;-77
2021/08/22 07:05:43;;;;;;;22.85;15.80;;;;;13.40;99893.00;;;;5028424;28;20049;-77
2021/08/22 07:08:09;;;;;;;32.58;20.27;;;;;13.60;99909.00;;;;5028002;28;20112;-77
2021/08/22 07:10:36;;;;;;;27.33;17.88;;;;;13.70;99885.00;;;;5028687;28;20029;-78
2021/08/22 07:13:04;;;;;;;27.20;17.25;;;;;13.80;99911.00;;;;5028408;28;20040;-78
2021/08/22 07:15:31;;;;;;;25.83;16.52;;;;;13.70;99913.00;;;;5028215;28;20057;-78
2021/08/22 07:17:57;;;;;;;25.00;15.77;;;;;13.80;99882.00;;;;5029012;28;20030;-78
2021/08/22 07:20:24;;;;;;;22.60;15.38;;;;;13.80;99891.00;;;;5028630;28;20091;-77
2021/08/22 07:22:50;;;;;;;23.20;15.68;;;;;13.70;99871.00;;;;5028771;28;20073;-76
2021/08/22 07:25:18;;;;;;;21.15;13.63;;;;;13.70;99869.00;;;;5028353;28;20080;-78
2021/08/22 07:27:44;;;;;;;23.85;15.13;;;;;13.90;99885.00;;;;5027955;28;20029;-77
2021/08/22 07:30:11;;;;;;;20.88;14.48;;;;;14.10;99876.00;;;;5028311;28;20060;-78
2021/08/22 07:32:38;;;;;;;21.25;14.93;;;;;14.00;99882.00;;;;5028031;28;20515;-79
2021/08/22 07:35:05;;;;;;;20.17;14.35;;;;;14.10;99863.00;;;;5028157;28;20590;-79
2021/08/22 07:37:32;;;;;;;26.73;14.50;;;;;14.10;99857.00;;;;5027957;28;20079;-79
2021/08/22 07:39:58;;;;;;;21.13;14.35;;;;;14.20;99877.00;;;;5027680;28;20045;-79
2021/08/22 07:42:25;;;;;;;23.60;14.60;;;;;14.20;99859.00;;;;5028477;28;20508;-78
2021/08/22 07:44:52;;;;;;;17.33;13.70;;;;;14.30;99876.00;;;;5028282;28;20388;-77
2021/08/22 07:47:18;;;;;;;20.73;12.98;;;;;14.30;99877.00;;;;5026633;28;20124;-78
2021/08/22 07:49:45;;;;;;;19.35;12.60;;;;;14.30;99859.00;;;;5028294;28;20539;-76
2021/08/22 07:52:11;;;;;;;19.25;12.85;;;;;14.30;99850.00;;;;5027660;28;20030;-77
2021/08/22 07:54:38;;;;;;;18.83;12.15;;;;;14.30;99870.00;;;;5027514;28;20493;-76
2021/08/22 07:57:05;;;;;;;21.52;13.20;;;;;14.30;99879.00;;;;5026919;28;20052;-78
2021/08/22 07:59:31;;;;;;;24.98;12.70;;;;;14.50;99849.00;;;;5027729;28;20061;-79
2021/08/22 08:01:58;;;;;;;24.80;13.05;;;;;14.50;99846.00;;;;5027506;28;20068;-77
2021/08/22 08:04:24;;;;;;;15.77;12.70;;;;;14.40;99847.00;;;;5027242;28;20033;-78
2021/08/22 08:06:51;;;;;;;19.67;13.27;;;;;14.50;99840.00;;;;5027559;28;20401;-77
2021/08/22 08:09:17;;;;;;;22.15;12.02;;;;;14.50;99854.00;;;;5027327;28;20039;-79
2021/08/22 08:11:44;;;;;;;15.88;11.82;;;;;14.50;99878.00;;;;5026707;28;20032;-79
2021/08/22 08:14:10;;;;;;;24.85;12.65;;;;;14.60;99875.00;;;;5028055;28;20048;-76
2021/08/22 08:16:37;;;;;;;14.85;12.25;;;;;14.60;99861.00;;;;5026100;28;20033;-79
2021/08/22 08:19:04;;;;;;;17.77;12.18;;;;;14.60;99839.00;;;;5027319;28;20032;-79
2021/08/22 08:21:30;;;;;;;14.38;11.57;;;;;14.60;99838.00;;;;5025845;28;20428;-78
2021/08/22 08:23:57;;;;;;;19.73;10.93;;;;;14.50;99838.00;;;;5026960;28;20025;-77
2021/08/22 08:26:23;;;;;;;20.77;11.82;;;;;14.60;99861.00;;;;5026934;28;20108;-78
2021/08/22 08:28:50;;;;;;;16.83;12.38;;;;;14.70;99861.00;;;;5027133;28;20136;-77
2021/08/22 08:31:17;;;;;;;16.67;11.68;;;;;14.70;99854.00;;;;5027605;28;20048;-77
2021/08/22 08:33:43;;;;;;;12.50;11.23;;;;;14.60;99857.00;;;;5027342;28;20041;-79
2021/08/22 08:36:10;;;;;;;12.77;10.50;;;;;14.70;99866.00;;;;5027150;28;20031;-78
2021/08/22 08:38:37;;;;;;;18.48;11.18;;;;;14.60;99790.00;;;;5027019;28;20040;-79
2021/08/22 08:41:04;;;;;;;21.77;12.13;;;;;14.70;99825.00;;;;5026278;28;20057;-78
2021/08/22 08:43:31;;;;;;;26.85;11.63;;;;;14.80;99854.00;;;;5027252;28;20096;-77
2021/08/22 08:46:03;;;;;;;13.57;11.52;;;;;14.70;99841.00;;;;5027177;28;20064;-75
2021/08/22 08:48:34;;;;;;;16.00;10.52;;;;;14.70;99858.00;;;;5027245;28;20065;-77
2021/08/22 08:51:25;;;;;;;22.33;11.85;;;;;14.70;99830.00;;;;5027230;28;20089;-78
2021/08/22 08:54:06;;;;;;;20.48;11.52;;;;;14.80;99844.00;;;;5025802;28;20041;-76
2021/08/22 08:56:39;;;;;;;19.67;12.05;;;;;14.80;99840.00;;;;5026644;28;20026;-78
2021/08/22 08:59:06;;;;;;;17.20;10.80;;;;;14.90;99847.00;;;;5026619;28;20452;-78
2021/08/22 09:01:35;;;;;;;13.18;11.15;;;;;14.90;99845.00;;;;5025179;28;20167;-78
2021/08/22 09:04:27;;;;;;;12.13;10.75;;;;;14.90;99844.00;;;;5026564;28;20030;-78
2021/08/22 09:07:11;;;;;;;;;;;;;14.80;99871.00;;;;5026824;28;20033;-77
2021/08/22 09:09:58;;;;;;;17.23;10.80;;;;;14.80;99877.00;;;;5026074;28;19917;-79
2021/08/22 09:13:01;;;;;;;16.98;10.55;;;;;14.60;99871.00;;;;4995499;28;20543;-78
2021/08/22 09:16:01;;;;;;;17.83;11.10;;;;;14.70;99876.00;;;;5026828;28;20033;-76
2021/08/22 09:18:57;;;;;;;15.25;10.02;;;;;14.80;99865.00;;;;5026533;28;20487;-79
2021/08/22 09:21:43;;;;;;;18.05;10.93;;;;;14.80;99861.00;;;;5030630;28;20057;-78
2021/08/22 09:24:31;;;;;;;17.30;11.18;;;;;14.70;99868.00;;;;5030684;28;20112;-76
2021/08/22 09:27:16;;;;;;;17.95;10.50;;;;;14.60;99861.00;;;;5030713;28;20037;-78
2021/08/22 09:30:19;;;;;;;17.38;10.93;;;;;14.60;99858.00;;;;5030572;28;20120;-78
2021/08/22 09:33:12;;;;;;;16.58;10.48;;;;;14.60;99862.00;;;;5029761;28;20450;-77
2021/08/22 09:36:03;;;;;;;20.58;10.60;;;;;14.70;99869.00;;;;5030335;28;20120;-79
2021/08/22 09:39:08;;;;;;;17.27;10.82;;;;;14.70;99863.00;;;;5031057;28;20079;-75
2021/08/22 09:41:59;;;;;;;20.33;10.68;;;;;14.80;99871.00;;;;5030356;28;20030;-77
2021/08/22 09:44:48;;;;;;;17.20;10.30;;;;;14.90;99857.00;;;;5028607;28;20397;-78
2021/08/22 09:47:48;;;;;;;17.42;10.80;;;;;14.80;99866.00;;;;5029548;28;20227;-77
2021/08/22 09:50:41;;;;;;;17.20;9.45;;;;;14.90;99860.00;;;;5029678;28;20079;-77
2021/08/22 09:53:44;;;;;;;15.38;9.18;;;;;15.00;99871.00;;;;5030031;28;20036;-77
2021/08/22 09:56:47;;;;;;;14.63;10.18;;;;;14.90;99863.00;;;;5029840;28;20041;-76
2021/08/22 09:59:19;;;;;;;15.52;9.68;;;;;15.00;99867.00;;;;5029770;28;20029;-76
2021/08/22 10:02:13;;;;;;;18.63;10.20;;;;;15.00;99873.00;;;;5029431;28;20504;-79
2021/08/22 10:05:06;;;;;;;13.25;8.88;;;;;15.30;99859.00;;;;5030000;28;20155;-76
2021/08/22 10:07:47;;;;;;;13.63;9.88;;;;;15.20;99873.00;;;;5030717;28;20025;-76
2021/08/22 10:10:24;;;;;;;14.70;9.57;;;;;15.20;99869.00;;;;5029327;28;20030;-78
2021/08/22 10:12:51;;;;;;;20.55;10.35;;;;;15.20;99862.00;;;;5030108;28;20033;-75
2021/08/22 10:15:22;;;;;;;23.13;9.52;;;;;15.30;99846.00;;;;5029565;28;20099;-79
2021/08/22 10:17:49;;;;;;;17.80;9.35;;;;;15.40;99867.00;;;;5029935;28;20455;-77
2021/08/22 10:20:20;;;;;;;14.77;9.50;;;;;15.40;99862.00;;;;5029300;28;20034;-78
2021/08/22 10:22:53;;;;;;;13.25;9.63;;;;;15.50;99842.00;;;;5029467;28;20036;-75
2021/08/22 10:25:49;;;;;;;14.20;8.55;;;;;15.80;99864.00;;;;5028366;28;20186;-79
2021/08/22 10:28:15;;;;;;;13.88;8.43;;;;;16.10;99866.00;;;;5029308;28;20645;-78
2021/08/22 10:30:43;;;;;;;13.20;9.05;;;;;16.20;99871.00;;;;5029267;28;20029;-78
2021/08/22 10:33:11;;;;;;;15.02;8.40;;;;;16.30;99860.00;;;;5028417;28;20484;-77
2021/08/22 10:35:37;;;;;;;15.18;8.82;;;;;16.40;99847.00;;;;5029206;28;20097;-81
2021/08/22 10:38:24;;;;;;;19.17;9.13;;;;;16.50;99870.00;;;;5029611;28;20029;-77
2021/08/22 10:40:52;;;;;;;22.50;9.65;;;;;16.70;99849.00;;;;5029401;28;20128;-80
2021/08/22 10:43:20;;;;;;;17.77;9.18;;;;;16.80;99868.00;;;;5029180;28;20025;-77
2021/08/22 10:45:47;;;;;;;15.27;9.27;;;;;17.00;99879.00;;;;5028724;28;20499;-77
2021/08/22 10:48:23;;;;;;;16.98;8.63;;;;;17.10;99857.00;;;;5029056;28;20029;-78
2021/08/22 10:50:58;;;;;;;13.80;8.25;;;;;17.30;99881.00;;;;5028994;28;20033;-78
2021/08/22 10:53:43;;;;;;;13.30;8.45;;;;;17.30;99852.00;;;;5028851;28;20254;-78
2021/08/22 10:56:24;;;;;;;25.27;8.80;;;;;17.40;99884.00;;;;5028807;28;20048;-78
2021/08/22 10:59:04;;;;;;;16.58;8.65;;;;;17.70;99862.00;;;;5028623;28;20128;-78
2021/08/22 11:01:38;;;;;;;11.63;8.20;;;;;17.80;99857.00;;;;5028977;28;20057;-79
2021/08/22 11:04:11;;;;;;;16.77;8.65;;;;;18.20;99868.00;;;;5028278;28;20033;-77
2021/08/22 11:06:55;;;;;;;11.05;8.32;;;;;19.00;99803.00;;;;5029021;28;20029;-80
2021/08/22 11:09:44;;;;;;;11.93;8.82;;;;;19.70;99799.00;;;;5027167;28;20033;-78
2021/08/22 11:12:34;;;;;;;14.10;7.43;;;;;20.20;99803.00;;;;5028611;28;20029;-75
2021/08/22 11:15:04;;;;;;;17.87;7.77;;;;;20.70;99783.00;;;;5028696;28;20029;-77
2021/08/22 11:17:33;;;;;;;15.48;7.70;;;;;21.10;99766.00;;;;5028542;28;20029;-79
2021/08/22 11:20:13;;;;;;;16.65;7.45;;;;;21.70;99770.00;;;;5028611;28;20079;-77
2021/08/22 11:22:42;;;;;;;11.30;7.10;;;;;21.70;99788.00;;;;5028149;28;20054;-79
2021/08/22 11:25:09;;;;;;;15.30;7.00;;;;;22.00;99789.00;;;;5028194;28;20029;-79
2021/08/22 11:27:36;;;;;;;16.85;7.85;;;;;22.20;99774.00;;;;5027805;28;20025;-77
2021/08/22 11:30:13;;;;;;;10.98;6.97;;;;;22.70;99778.00;;;;5028327;28;20513;-79
2021/08/22 11:32:53;;;;;;;15.68;7.43;;;;;23.10;99768.00;;;;5028913;28;20034;-79
2021/08/22 11:35:22;;;;;;;15.00;6.72;;;;;23.30;99757.00;;;;5027907;28;20033;-79
2021/08/22 11:37:49;;;;;;;11.82;7.43;;;;;23.30;99757.00;;;;5027378;28;20026;-80
2021/08/22 11:40:17;;;;;;;9.25;5.97;;;;;23.70;99737.00;;;;5028323;28;20539;-77
2021/08/22 11:42:52;;;;;;;13.05;6.75;;;;;23.90;99731.00;;;;5027220;28;20102;-79
2021/08/22 11:45:21;;;;;;;9.90;6.72;;;;;24.00;99766.00;;;;5027862;28;20025;-79
2021/08/22 11:47:49;;;;;;;9.85;6.50;;;;;24.20;99752.00;;;;5027972;28;20386;-81
2021/08/22 11:50:17;;;;;;;11.63;6.75;;;;;24.60;99755.00;;;;5027411;28;20034;-77
2021/08/22 11:52:46;;;;;;;10.82;6.97;;;;;25.00;99754.00;;;;5027371;28;20025;-79
2021/08/22 11:55:14;;;;;;;13.77;6.80;;;;;25.30;99779.00;;;;5027736;28;20026;-76
2021/08/22 11:57:41;;;;;;;15.15;6.78;;;;;25.60;99756.00;;;;5027073;28;20404;-81
2021/08/22 12:00:13;;;;;;;21.05;7.55;;;;;26.00;99743.00;;;;5027903;28;20552;-82
2021/08/22 12:02:53;;;;;;;10.80;6.55;;;;;26.20;99746.00;;;;5027169;28;20033;-80
2021/08/22 12:05:23;;;;;;;15.93;7.05;;;;;26.70;99733.00;;;;5028219;28;20026;-81
2021/08/22 12:08:10;;;;;;;16.80;6.25;;;;;27.10;99730.00;;;;5027815;28;20079;-77
2021/08/22 12:10:40;;;;;;;13.93;6.80;;;;;27.30;99728.00;;;;5027634;28;20099;-79
2021/08/22 12:13:17;;;;;;;15.38;6.82;;;;;28.10;99744.00;;;;5027746;28;20021;-82
2021/08/22 12:15:45;;;;;;;16.67;6.10;;;;;28.00;99751.00;;;;5027139;28;20393;-78